sensor_id;sensor_type;location;lat;lon;timestamp;temperature;humidity
32694;DHT22;19084;44.716;10.218;2022-10-16T00:02:27;18.20;99.90
32694;DHT22;19084;44.716;10.218;2022-10-16T00:05:00;18.20;99.90
32694;DHT22;19084;44.716;10.218;2022-10-16T00:07:33;18.20;99.90
32694;DHT22;19084;44.716;10.218;2022-10-16T00:10:06;18.20;99.90
32694;DHT22;19084;44.716;10.218;2022-10-16T00:12:39;18.20;99.90
32694;DHT22;19084;44.716;10.218;2022-10-16T00:15:11;18.20;99.90
32694;DHT22;19084;44.716;10.218;2022-10-16T00:17:44;18.10;99.90
32694;DHT22;19084;44.716;10.218;2022-10-16T00:20:17;18.10;99.90
32694;DHT22;19084;44.716;10.218;2022-10-16T00:22:49;18.10;99.90
32694;DHT22;19084;44.716;10.218;2022-10-16T00:25:22;18.20;99.90
32694;DHT22;19084;44.716;10.218;2022-10-16T00:27:55;18.20;99.90
32694;DHT22;19084;44.716;10.218;2022-10-16T00:30:27;18.30;99.90
32694;DHT22;19084;44.716;10.218;2022-10-16T00:33:01;18.30;99.90
32694;DHT22;19084;44.716;10.218;2022-10-16T00:35:33;18.30;99.90
32694;DHT22;19084;44.716;10.218;2022-10-16T00:38:06;18.40;99.90
32694;DHT22;19084;44.716;10.218;2022-10-16T00:40:39;18.40;99.90
32694;DHT22;19084;44.716;10.218;2022-10-16T00:43:32;18.40;99.90
32694;DHT22;19084;44.716;10.218;2022-10-16T00:48:49;18.40;99.90
32694;DHT22;19084;44.716;10.218;2022-10-16T00:51:26;18.50;99.90
32694;DHT22;19084;44.716;10.218;2022-10-16T00:54:03;18.50;99.90
32694;DHT22;19084;44.716;10.218;2022-10-16T00:56:36;18.50;99.90
32694;DHT22;19084;44.716;10.218;2022-10-16T00:59:15;18.50;99.90
32694;DHT22;19084;44.716;10.218;2022-10-16T01:01:48;18.50;99.90
32694;DHT22;19084;44.716;10.218;2022-10-16T01:04:22;18.50;99.90
32694;DHT22;19084;44.716;10.218;2022-10-16T01:07:04;18.50;99.90
32694;DHT22;19084;44.716;10.218;2022-10-16T01:12:38;18.50;99.90
32694;DHT22;19084;44.716;10.218;2022-10-16T01:20:37;18.50;99.90
32694;DHT22;19084;44.716;10.218;2022-10-16T01:23:32;18.50;99.90
32694;DHT22;19084;44.716;10.218;2022-10-16T01:28:55;18.50;99.90
32694;DHT22;19084;44.716;10.218;2022-10-16T01:31:32;18.50;99.90
32694;DHT22;19084;44.716;10.218;2022-10-16T01:34:13;18.50;99.90
32694;DHT22;19084;44.716;10.218;2022-10-16T01:36:53;18.40;99.90
32694;DHT22;19084;44.716;10.218;2022-10-16T01:39:31;18.40;99.90
32694;DHT22;19084;44.716;10.218;2022-10-16T01:42:10;18.40;99.90
32694;DHT22;19084;44.716;10.218;2022-10-16T01:44:44;18.40;99.90
32694;DHT22;19084;44.716;10.218;2022-10-16T01:47:21;18.30;99.90
32694;DHT22;19084;44.716;10.218;2022-10-16T01:49:58;18.30;99.90
32694;DHT22;19084;44.716;10.218;2022-10-16T01:52:35;18.30;99.90
32694;DHT22;19084;44.716;10.218;2022-10-16T01:55:11;18.30;99.90
32694;DHT22;19084;44.716;10.218;2022-10-16T01:57:48;18.20;99.90
32694;DHT22;19084;44.716;10.218;2022-10-16T02:00:22;18.20;99.90
32694;DHT22;19084;44.716;10.218;2022-10-16T02:02:56;18.20;99.90
32694;DHT22;19084;44.716;10.218;2022-10-16T02:08:23;18.20;99.90
32694;DHT22;19084;44.716;10.218;2022-10-16T02:10:57;18.10;99.90
32694;DHT22;19084;44.716;10.218;2022-10-16T02:13:34;18.10;99.90
32694;DHT22;19084;44.716;10.218;2022-10-16T02:16:09;18.10;99.90
32694;DHT22;19084;44.716;10.218;2022-10-16T02:18:43;18.20;99.90
32694;DHT22;19084;44.716;10.218;2022-10-16T02:21:23;18.10;99.90
32694;DHT22;19084;44.716;10.218;2022-10-16T02:29:25;18.10;99.90
32694;DHT22;19084;44.716;10.218;2022-10-16T02:32:01;18.10;99.90
32694;DHT22;19084;44.716;10.218;2022-10-16T02:34:36;18.10;99.90
32694;DHT22;19084;44.716;10.218;2022-10-16T02:37:10;18.10;99.90
32694;DHT22;19084;44.716;10.218;2022-10-16T02:39:43;18.00;99.90
32694;DHT22;19084;44.716;10.218;2022-10-16T02:42:18;18.00;99.90
32694;DHT22;19084;44.716;10.218;2022-10-16T02:44:50;18.00;99.90
32694;DHT22;19084;44.716;10.218;2022-10-16T02:47:23;18.00;99.90
32694;DHT22;19084;44.716;10.218;2022-10-16T02:49:56;18.00;99.90
32694;DHT22;19084;44.716;10.218;2022-10-16T02:52:29;18.00;99.90
32694;DHT22;19084;44.716;10.218;2022-10-16T02:55:01;18.00;99.90
32694;DHT22;19084;44.716;10.218;2022-10-16T02:57:34;18.00;99.90
32694;DHT22;19084;44.716;10.218;2022-10-16T03:00:13;18.00;99.90
32694;DHT22;19084;44.716;10.218;2022-10-16T03:02:46;18.00;99.90
32694;DHT22;19084;44.716;10.218;2022-10-16T03:05:19;17.90;99.90
32694;DHT22;19084;44.716;10.218;2022-10-16T03:07:51;17.90;99.90
32694;DHT22;19084;44.716;10.218;2022-10-16T03:10:24;17.90;99.90
32694;DHT22;19084;44.716;10.218;2022-10-16T03:12:57;17.90;99.90
32694;DHT22;19084;44.716;10.218;2022-10-16T03:15:30;17.90;99.90
32694;DHT22;19084;44.716;10.218;2022-10-16T03:18:02;17.90;99.90
32694;DHT22;19084;44.716;10.218;2022-10-16T03:20:35;17.80;99.90
32694;DHT22;19084;44.716;10.218;2022-10-16T03:23:08;17.80;99.90
32694;DHT22;19084;44.716;10.218;2022-10-16T03:25:40;17.80;99.90
32694;DHT22;19084;44.716;10.218;2022-10-16T03:28:13;17.80;99.90
32694;DHT22;19084;44.716;10.218;2022-10-16T03:30:46;17.70;99.90
32694;DHT22;19084;44.716;10.218;2022-10-16T03:33:18;17.60;99.90
32694;DHT22;19084;44.716;10.218;2022-10-16T03:35:52;17.60;99.90
32694;DHT22;19084;44.716;10.218;2022-10-16T03:38:25;17.50;99.90
32694;DHT22;19084;44.716;10.218;2022-10-16T03:40:58;17.40;99.90
32694;DHT22;19084;44.716;10.218;2022-10-16T03:43:31;17.40;99.90
32694;DHT22;19084;44.716;10.218;2022-10-16T03:46:03;17.30;99.90
32694;DHT22;19084;44.716;10.218;2022-10-16T03:48:36;17.30;99.90
32694;DHT22;19084;44.716;10.218;2022-10-16T03:51:09;17.30;99.90
32694;DHT22;19084;44.716;10.218;2022-10-16T03:53:41;17.30;99.90
32694;DHT22;19084;44.716;10.218;2022-10-16T03:56:14;17.20;99.90
32694;DHT22;19084;44.716;10.218;2022-10-16T03:58:46;17.20;99.90
32694;DHT22;19084;44.716;10.218;2022-10-16T04:01:19;17.20;99.90
32694;DHT22;19084;44.716;10.218;2022-10-16T04:03:52;17.10;99.90
32694;DHT22;19084;44.716;10.218;2022-10-16T04:06:24;17.10;99.90
32694;DHT22;19084;44.716;10.218;2022-10-16T04:08:57;17.00;99.90
32694;DHT22;19084;44.716;10.218;2022-10-16T04:11:30;17.00;99.90
32694;DHT22;19084;44.716;10.218;2022-10-16T04:14:02;16.90;99.90
32694;DHT22;19084;44.716;10.218;2022-10-16T04:16:35;16.90;99.90
32694;DHT22;19084;44.716;10.218;2022-10-16T04:19:09;16.90;99.90
32694;DHT22;19084;44.716;10.218;2022-10-16T04:21:42;16.80;99.90
32694;DHT22;19084;44.716;10.218;2022-10-16T04:24:15;16.70;99.90
32694;DHT22;19084;44.716;10.218;2022-10-16T04:26:47;16.70;99.90
32694;DHT22;19084;44.716;10.218;2022-10-16T04:29:20;16.70;99.90
32694;DHT22;19084;44.716;10.218;2022-10-16T04:31:53;16.70;99.90
32694;DHT22;19084;44.716;10.218;2022-10-16T04:34:25;16.60;99.90
32694;DHT22;19084;44.716;10.218;2022-10-16T04:36:57;16.50;99.90
32694;DHT22;19084;44.716;10.218;2022-10-16T04:39:30;16.50;99.90
32694;DHT22;19084;44.716;10.218;2022-10-16T04:42:02;16.40;99.90
32694;DHT22;19084;44.716;10.218;2022-10-16T04:44:35;16.40;99.90
32694;DHT22;19084;44.716;10.218;2022-10-16T04:47:08;16.40;99.90
32694;DHT22;19084;44.716;10.218;2022-10-16T04:49:41;16.30;99.90
32694;DHT22;19084;44.716;10.218;2022-10-16T04:52:13;16.30;99.90
32694;DHT22;19084;44.716;10.218;2022-10-16T04:54:46;16.30;99.90
32694;DHT22;19084;44.716;10.218;2022-10-16T04:57:19;16.30;99.90
32694;DHT22;19084;44.716;10.218;2022-10-16T04:59:51;16.20;99.90
32694;DHT22;19084;44.716;10.218;2022-10-16T05:02:24;16.20;99.90
32694;DHT22;19084;44.716;10.218;2022-10-16T05:04:56;16.20;99.90
32694;DHT22;19084;44.716;10.218;2022-10-16T05:07:29;16.20;99.90
32694;DHT22;19084;44.716;10.218;2022-10-16T05:10:02;16.20;99.90
32694;DHT22;19084;44.716;10.218;2022-10-16T05:12:34;16.10;99.90
32694;DHT22;19084;44.716;10.218;2022-10-16T05:15:07;16.10;99.90
32694;DHT22;19084;44.716;10.218;2022-10-16T05:17:40;16.10;99.90
32694;DHT22;19084;44.716;10.218;2022-10-16T05:20:16;16.10;99.90
32694;DHT22;19084;44.716;10.218;2022-10-16T05:22:49;16.10;99.90
32694;DHT22;19084;44.716;10.218;2022-10-16T05:25:21;16.10;99.90
32694;DHT22;19084;44.716;10.218;2022-10-16T05:27:53;16.10;99.90
32694;DHT22;19084;44.716;10.218;2022-10-16T05:30:26;16.00;99.90
32694;DHT22;19084;44.716;10.218;2022-10-16T05:32:59;16.00;99.90
32694;DHT22;19084;44.716;10.218;2022-10-16T05:35:31;16.00;99.90
32694;DHT22;19084;44.716;10.218;2022-10-16T05:38:04;16.00;99.90
32694;DHT22;19084;44.716;10.218;2022-10-16T05:40:37;15.90;99.90
32694;DHT22;19084;44.716;10.218;2022-10-16T05:43:10;15.90;99.90
32694;DHT22;19084;44.716;10.218;2022-10-16T05:45:42;15.90;99.90
32694;DHT22;19084;44.716;10.218;2022-10-16T05:48:15;15.80;99.90
32694;DHT22;19084;44.716;10.218;2022-10-16T05:50:47;15.80;99.90
32694;DHT22;19084;44.716;10.218;2022-10-16T05:53:20;15.80;99.90
32694;DHT22;19084;44.716;10.218;2022-10-16T05:55:58;15.90;99.90
32694;DHT22;19084;44.716;10.218;2022-10-16T05:58:33;15.90;99.90
32694;DHT22;19084;44.716;10.218;2022-10-16T06:01:12;15.90;99.90
32694;DHT22;19084;44.716;10.218;2022-10-16T06:03:44;16.00;99.90
32694;DHT22;19084;44.716;10.218;2022-10-16T06:06:20;16.00;99.90
32694;DHT22;19084;44.716;10.218;2022-10-16T06:08:54;16.10;99.90
32694;DHT22;19084;44.716;10.218;2022-10-16T06:11:30;16.10;99.90
32694;DHT22;19084;44.716;10.218;2022-10-16T06:14:03;16.20;99.90
32694;DHT22;19084;44.716;10.218;2022-10-16T06:16:39;16.30;99.90
32694;DHT22;19084;44.716;10.218;2022-10-16T06:19:11;16.30;99.90
32694;DHT22;19084;44.716;10.218;2022-10-16T06:21:44;16.40;99.90
32694;DHT22;19084;44.716;10.218;2022-10-16T06:24:17;16.40;99.90
32694;DHT22;19084;44.716;10.218;2022-10-16T06:26:49;16.40;99.90
32694;DHT22;19084;44.716;10.218;2022-10-16T06:29:22;16.50;99.90
32694;DHT22;19084;44.716;10.218;2022-10-16T06:31:55;16.50;99.90
32694;DHT22;19084;44.716;10.218;2022-10-16T06:34:27;16.60;99.90
32694;DHT22;19084;44.716;10.218;2022-10-16T06:37:00;16.60;99.90
32694;DHT22;19084;44.716;10.218;2022-10-16T06:39:33;16.70;99.90
32694;DHT22;19084;44.716;10.218;2022-10-16T06:42:05;16.70;99.90
32694;DHT22;19084;44.716;10.218;2022-10-16T06:44:41;16.70;99.90
32694;DHT22;19084;44.716;10.218;2022-10-16T06:47:13;16.80;99.90
32694;DHT22;19084;44.716;10.218;2022-10-16T06:49:46;16.80;99.90
32694;DHT22;19084;44.716;10.218;2022-10-16T06:52:28;16.90;99.90
32694;DHT22;19084;44.716;10.218;2022-10-16T06:55:00;17.00;99.90
32694;DHT22;19084;44.716;10.218;2022-10-16T06:57:33;17.00;99.90
32694;DHT22;19084;44.716;10.218;2022-10-16T07:00:06;17.00;99.90
32694;DHT22;19084;44.716;10.218;2022-10-16T07:02:39;17.10;99.90
32694;DHT22;19084;44.716;10.218;2022-10-16T07:05:12;17.20;99.90
32694;DHT22;19084;44.716;10.218;2022-10-16T07:07:44;17.20;99.90
32694;DHT22;19084;44.716;10.218;2022-10-16T07:10:17;17.30;99.90
32694;DHT22;19084;44.716;10.218;2022-10-16T07:12:49;17.40;99.90
32694;DHT22;19084;44.716;10.218;2022-10-16T07:15:22;17.50;99.90
32694;DHT22;19084;44.716;10.218;2022-10-16T07:17:55;17.50;99.90
32694;DHT22;19084;44.716;10.218;2022-10-16T07:20:27;17.60;99.90
32694;DHT22;19084;44.716;10.218;2022-10-16T07:23:00;17.60;99.90
32694;DHT22;19084;44.716;10.218;2022-10-16T07:25:33;17.70;99.90
32694;DHT22;19084;44.716;10.218;2022-10-16T07:28:05;17.70;99.90
32694;DHT22;19084;44.716;10.218;2022-10-16T07:30:38;17.70;99.90
32694;DHT22;19084;44.716;10.218;2022-10-16T07:33:11;17.80;99.90
32694;DHT22;19084;44.716;10.218;2022-10-16T07:35:52;17.80;99.90
32694;DHT22;19084;44.716;10.218;2022-10-16T07:38:25;17.90;99.90
32694;DHT22;19084;44.716;10.218;2022-10-16T07:40:59;17.90;99.90
32694;DHT22;19084;44.716;10.218;2022-10-16T07:43:33;18.00;99.90
32694;DHT22;19084;44.716;10.218;2022-10-16T07:46:06;18.00;99.90
32694;DHT22;19084;44.716;10.218;2022-10-16T07:48:38;18.00;99.90
32694;DHT22;19084;44.716;10.218;2022-10-16T07:51:12;18.10;99.90
32694;DHT22;19084;44.716;10.218;2022-10-16T07:53:46;18.20;99.90
32694;DHT22;19084;44.716;10.218;2022-10-16T07:56:19;18.20;99.90
32694;DHT22;19084;44.716;10.218;2022-10-16T07:58:52;18.30;99.90
32694;DHT22;19084;44.716;10.218;2022-10-16T08:01:25;18.30;99.90
32694;DHT22;19084;44.716;10.218;2022-10-16T08:03:58;18.40;99.90
32694;DHT22;19084;44.716;10.218;2022-10-16T08:06:36;18.50;99.90
32694;DHT22;19084;44.716;10.218;2022-10-16T08:09:09;18.60;99.90
32694;DHT22;19084;44.716;10.218;2022-10-16T08:11:43;18.70;99.90
32694;DHT22;19084;44.716;10.218;2022-10-16T08:14:16;18.80;99.90
32694;DHT22;19084;44.716;10.218;2022-10-16T08:16:49;18.80;99.90
32694;DHT22;19084;44.716;10.218;2022-10-16T08:19:22;18.90;99.90
32694;DHT22;19084;44.716;10.218;2022-10-16T08:21:54;18.90;99.90
32694;DHT22;19084;44.716;10.218;2022-10-16T08:24:27;19.00;99.90
32694;DHT22;19084;44.716;10.218;2022-10-16T08:27:03;19.10;99.90
32694;DHT22;19084;44.716;10.218;2022-10-16T08:29:39;19.10;99.90
32694;DHT22;19084;44.716;10.218;2022-10-16T08:32:12;19.20;99.90
32694;DHT22;19084;44.716;10.218;2022-10-16T08:34:45;19.20;99.90
32694;DHT22;19084;44.716;10.218;2022-10-16T08:37:17;19.30;99.90
32694;DHT22;19084;44.716;10.218;2022-10-16T08:39:50;19.30;99.90
32694;DHT22;19084;44.716;10.218;2022-10-16T08:42:28;19.30;99.90
32694;DHT22;19084;44.716;10.218;2022-10-16T08:50:29;19.30;99.90
32694;DHT22;19084;44.716;10.218;2022-10-16T08:53:04;19.30;99.90
32694;DHT22;19084;44.716;10.218;2022-10-16T08:55:42;19.30;99.90
32694;DHT22;19084;44.716;10.218;2022-10-16T08:58:17;19.30;99.90
32694;DHT22;19084;44.716;10.218;2022-10-16T09:00:55;19.30;99.90
32694;DHT22;19084;44.716;10.218;2022-10-16T09:03:44;19.40;99.90
32694;DHT22;19084;44.716;10.218;2022-10-16T09:12:04;19.70;99.90
32694;DHT22;19084;44.716;10.218;2022-10-16T09:22:55;20.00;99.90
32694;DHT22;19084;44.716;10.218;2022-10-16T09:25:34;20.00;99.90
32694;DHT22;19084;44.716;10.218;2022-10-16T09:28:08;20.10;99.90
32694;DHT22;19084;44.716;10.218;2022-10-16T09:30:43;20.20;99.90
32694;DHT22;19084;44.716;10.218;2022-10-16T09:33:18;20.20;99.90
32694;DHT22;19084;44.716;10.218;2022-10-16T09:35:54;20.30;99.90
32694;DHT22;19084;44.716;10.218;2022-10-16T09:38:30;20.30;99.90
32694;DHT22;19084;44.716;10.218;2022-10-16T09:43:56;20.40;99.90
32694;DHT22;19084;44.716;10.218;2022-10-16T09:46:32;20.50;99.90
32694;DHT22;19084;44.716;10.218;2022-10-16T09:52:11;20.60;99.90
32694;DHT22;19084;44.716;10.218;2022-10-16T09:55:01;20.70;99.90
32694;DHT22;19084;44.716;10.218;2022-10-16T09:57:35;20.70;99.90
32694;DHT22;19084;44.716;10.218;2022-10-16T10:00:09;20.70;99.90
32694;DHT22;19084;44.716;10.218;2022-10-16T10:02:42;20.80;99.90
32694;DHT22;19084;44.716;10.218;2022-10-16T10:05:27;20.80;99.90
32694;DHT22;19084;44.716;10.218;2022-10-16T10:08:03;20.80;99.90
32694;DHT22;19084;44.716;10.218;2022-10-16T10:10:42;20.80;99.90
32694;DHT22;19084;44.716;10.218;2022-10-16T10:13:21;20.40;99.90
32694;DHT22;19084;44.716;10.218;2022-10-16T10:15:54;20.70;99.90
32694;DHT22;19084;44.716;10.218;2022-10-16T10:18:26;20.70;99.90
32694;DHT22;19084;44.716;10.218;2022-10-16T10:21:00;20.80;99.90
32694;DHT22;19084;44.716;10.218;2022-10-16T10:23:33;20.80;99.90
32694;DHT22;19084;44.716;10.218;2022-10-16T10:26:13;20.80;99.90
32694;DHT22;19084;44.716;10.218;2022-10-16T10:31:41;20.80;99.90
32694;DHT22;19084;44.716;10.218;2022-10-16T10:45:43;21.20;99.90
32694;DHT22;19084;44.716;10.218;2022-10-16T11:05:20;21.60;99.90
32694;DHT22;19084;44.716;10.218;2022-10-16T11:10:54;21.70;99.90
32694;DHT22;19084;44.716;10.218;2022-10-16T11:16:15;21.70;99.90
32694;DHT22;19084;44.716;10.218;2022-10-16T11:19:03;21.80;99.90
32694;DHT22;19084;44.716;10.218;2022-10-16T11:21:47;21.90;99.90
32694;DHT22;19084;44.716;10.218;2022-10-16T11:30:25;22.10;99.90
32694;DHT22;19084;44.716;10.218;2022-10-16T11:33:02;22.20;99.90
32694;DHT22;19084;44.716;10.218;2022-10-16T11:41:20;22.20;99.90
32694;DHT22;19084;44.716;10.218;2022-10-16T11:50:26;22.50;99.90
32694;DHT22;19084;44.716;10.218;2022-10-16T11:55:46;22.70;99.90
32694;DHT22;19084;44.716;10.218;2022-10-16T11:58:36;22.70;99.90
32694;DHT22;19084;44.716;10.218;2022-10-16T12:03:58;22.60;99.90
32694;DHT22;19084;44.716;10.218;2022-10-16T12:06:43;22.70;99.90
32694;DHT22;19084;44.716;10.218;2022-10-16T12:09:34;22.70;99.90
32694;DHT22;19084;44.716;10.218;2022-10-16T12:12:24;22.70;99.90
32694;DHT22;19084;44.716;10.218;2022-10-16T12:15:01;22.70;99.90
32694;DHT22;19084;44.716;10.218;2022-10-16T12:17:51;22.70;99.90
32694;DHT22;19084;44.716;10.218;2022-10-16T12:20:33;22.60;99.90
32694;DHT22;19084;44.716;10.218;2022-10-16T12:23:19;22.70;99.90
32694;DHT22;19084;44.716;10.218;2022-10-16T12:25:56;22.60;99.90
32694;DHT22;19084;44.716;10.218;2022-10-16T12:28:32;22.60;99.90
32694;DHT22;19084;44.716;10.218;2022-10-16T12:31:07;22.60;99.90
32694;DHT22;19084;44.716;10.218;2022-10-16T12:33:58;22.60;99.90
32694;DHT22;19084;44.716;10.218;2022-10-16T12:36:34;22.60;99.90
32694;DHT22;19084;44.716;10.218;2022-10-16T12:39:22;22.60;99.90
32694;DHT22;19084;44.716;10.218;2022-10-16T12:45:01;22.70;99.90
32694;DHT22;19084;44.716;10.218;2022-10-16T12:47:47;22.90;99.90
32694;DHT22;19084;44.716;10.218;2022-10-16T12:50:30;22.90;99.90
32694;DHT22;19084;44.716;10.218;2022-10-16T12:53:18;23.00;99.90
32694;DHT22;19084;44.716;10.218;2022-10-16T12:56:10;23.10;99.90
32694;DHT22;19084;44.716;10.218;2022-10-16T13:01:29;23.20;99.90
32694;DHT22;19084;44.716;10.218;2022-10-16T13:09:54;23.30;99.90
32694;DHT22;19084;44.716;10.218;2022-10-16T13:12:45;23.30;99.90
32694;DHT22;19084;44.716;10.218;2022-10-16T13:18:23;23.40;99.90
32694;DHT22;19084;44.716;10.218;2022-10-16T13:21:05;23.40;99.90
32694;DHT22;19084;44.716;10.218;2022-10-16T13:29:18;23.50;99.90
32694;DHT22;19084;44.716;10.218;2022-10-16T13:31:52;23.60;99.90
32694;DHT22;19084;44.716;10.218;2022-10-16T13:34:25;23.60;99.90
32694;DHT22;19084;44.716;10.218;2022-10-16T13:36:59;23.70;99.90
32694;DHT22;19084;44.716;10.218;2022-10-16T13:39:32;23.70;99.90
32694;DHT22;19084;44.716;10.218;2022-10-16T13:42:11;23.70;99.90
32694;DHT22;19084;44.716;10.218;2022-10-16T13:44:50;23.60;99.90
32694;DHT22;19084;44.716;10.218;2022-10-16T13:47:25;23.60;99.90
32694;DHT22;19084;44.716;10.218;2022-10-16T13:50:01;23.60;99.90
32694;DHT22;19084;44.716;10.218;2022-10-16T13:52:34;23.60;99.90
32694;DHT22;19084;44.716;10.218;2022-10-16T13:55:17;23.60;99.90
32694;DHT22;19084;44.716;10.218;2022-10-16T13:57:50;23.50;99.90
32694;DHT22;19084;44.716;10.218;2022-10-16T14:00:25;23.50;99.90
32694;DHT22;19084;44.716;10.218;2022-10-16T14:03:05;23.60;99.90
32694;DHT22;19084;44.716;10.218;2022-10-16T14:05:55;23.60;99.90
32694;DHT22;19084;44.716;10.218;2022-10-16T14:08:30;23.60;99.90
32694;DHT22;19084;44.716;10.218;2022-10-16T14:11:04;23.60;99.90
32694;DHT22;19084;44.716;10.218;2022-10-16T14:13:43;23.50;99.90
32694;DHT22;19084;44.716;10.218;2022-10-16T14:16:22;23.50;99.90
32694;DHT22;19084;44.716;10.218;2022-10-16T14:18:57;23.50;99.90
32694;DHT22;19084;44.716;10.218;2022-10-16T14:21:31;23.50;99.90
32694;DHT22;19084;44.716;10.218;2022-10-16T14:24:13;23.50;99.90
32694;DHT22;19084;44.716;10.218;2022-10-16T14:26:47;23.50;99.90
32694;DHT22;19084;44.716;10.218;2022-10-16T14:29:24;23.50;99.90
32694;DHT22;19084;44.716;10.218;2022-10-16T14:34:36;23.40;99.90
32694;DHT22;19084;44.716;10.218;2022-10-16T14:37:24;23.30;99.90
32694;DHT22;19084;44.716;10.218;2022-10-16T14:40:00;23.30;99.90
32694;DHT22;19084;44.716;10.218;2022-10-16T14:42:35;23.20;99.90
32694;DHT22;19084;44.716;10.218;2022-10-16T14:45:09;23.20;99.90
32694;DHT22;19084;44.716;10.218;2022-10-16T14:47:54;23.20;99.90
32694;DHT22;19084;44.716;10.218;2022-10-16T14:50:28;23.20;99.90
32694;DHT22;19084;44.716;10.218;2022-10-16T14:53:04;23.20;99.90
32694;DHT22;19084;44.716;10.218;2022-10-16T14:55:41;23.10;99.90
32694;DHT22;19084;44.716;10.218;2022-10-16T14:58:18;23.20;99.90
32694;DHT22;19084;44.716;10.218;2022-10-16T15:00:51;23.20;99.90
32694;DHT22;19084;44.716;10.218;2022-10-16T15:03:24;23.10;99.90
32694;DHT22;19084;44.716;10.218;2022-10-16T15:05:58;23.00;99.90
32694;DHT22;19084;44.716;10.218;2022-10-16T15:08:30;23.00;99.90
32694;DHT22;19084;44.716;10.218;2022-10-16T15:11:03;22.90;99.90
32694;DHT22;19084;44.716;10.218;2022-10-16T15:13:36;22.90;99.90
32694;DHT22;19084;44.716;10.218;2022-10-16T15:16:14;22.90;99.90
32694;DHT22;19084;44.716;10.218;2022-10-16T15:18:47;22.90;99.90
32694;DHT22;19084;44.716;10.218;2022-10-16T15:21:25;22.80;99.90
32694;DHT22;19084;44.716;10.218;2022-10-16T15:23:59;22.80;99.90
32694;DHT22;19084;44.716;10.218;2022-10-16T15:26:33;22.70;99.90
32694;DHT22;19084;44.716;10.218;2022-10-16T15:29:06;22.70;99.90
32694;DHT22;19084;44.716;10.218;2022-10-16T15:31:40;22.60;99.90
32694;DHT22;19084;44.716;10.218;2022-10-16T15:34:15;22.60;99.90
32694;DHT22;19084;44.716;10.218;2022-10-16T15:36:52;22.50;99.90
32694;DHT22;19084;44.716;10.218;2022-10-16T15:39:25;22.50;99.90
32694;DHT22;19084;44.716;10.218;2022-10-16T15:41:58;22.40;99.90
32694;DHT22;19084;44.716;10.218;2022-10-16T15:44:31;22.30;99.90
32694;DHT22;19084;44.716;10.218;2022-10-16T15:47:04;22.30;99.90
32694;DHT22;19084;44.716;10.218;2022-10-16T15:49:37;22.20;99.90
32694;DHT22;19084;44.716;10.218;2022-10-16T15:52:10;22.10;99.90
32694;DHT22;19084;44.716;10.218;2022-10-16T15:54:43;22.10;99.90
32694;DHT22;19084;44.716;10.218;2022-10-16T15:57:21;22.00;99.90
32694;DHT22;19084;44.716;10.218;2022-10-16T15:59:55;22.00;99.90
32694;DHT22;19084;44.716;10.218;2022-10-16T16:02:27;22.00;99.90
32694;DHT22;19084;44.716;10.218;2022-10-16T16:05:01;21.90;99.90
32694;DHT22;19084;44.716;10.218;2022-10-16T16:07:35;21.80;99.90
32694;DHT22;19084;44.716;10.218;2022-10-16T16:10:10;21.80;99.90
32694;DHT22;19084;44.716;10.218;2022-10-16T16:12:43;21.70;99.90
32694;DHT22;19084;44.716;10.218;2022-10-16T16:15:15;21.60;99.90
32694;DHT22;19084;44.716;10.218;2022-10-16T16:17:49;21.50;99.90
32694;DHT22;19084;44.716;10.218;2022-10-16T16:20:21;21.50;99.90
32694;DHT22;19084;44.716;10.218;2022-10-16T16:22:54;21.40;99.90
32694;DHT22;19084;44.716;10.218;2022-10-16T16:25:27;21.30;99.90
32694;DHT22;19084;44.716;10.218;2022-10-16T16:27:59;21.20;99.90
32694;DHT22;19084;44.716;10.218;2022-10-16T16:30:32;21.20;99.90
32694;DHT22;19084;44.716;10.218;2022-10-16T16:33:04;21.10;99.90
32694;DHT22;19084;44.716;10.218;2022-10-16T16:35:39;21.00;99.90
32694;DHT22;19084;44.716;10.218;2022-10-16T16:38:12;20.90;99.90
32694;DHT22;19084;44.716;10.218;2022-10-16T16:40:44;20.90;99.90
32694;DHT22;19084;44.716;10.218;2022-10-16T16:43:18;20.80;99.90
32694;DHT22;19084;44.716;10.218;2022-10-16T16:45:52;20.70;99.90
32694;DHT22;19084;44.716;10.218;2022-10-16T16:48:25;20.60;99.90
32694;DHT22;19084;44.716;10.218;2022-10-16T16:51:09;20.60;99.90
32694;DHT22;19084;44.716;10.218;2022-10-16T16:53:43;20.50;99.90
32694;DHT22;19084;44.716;10.218;2022-10-16T16:56:16;20.40;99.90
32694;DHT22;19084;44.716;10.218;2022-10-16T16:58:51;20.40;99.90
32694;DHT22;19084;44.716;10.218;2022-10-16T17:01:27;20.30;99.90
32694;DHT22;19084;44.716;10.218;2022-10-16T17:04:00;20.20;99.90
32694;DHT22;19084;44.716;10.218;2022-10-16T17:06:34;20.10;99.90
32694;DHT22;19084;44.716;10.218;2022-10-16T17:09:07;20.10;99.90
32694;DHT22;19084;44.716;10.218;2022-10-16T17:11:42;20.00;99.90
32694;DHT22;19084;44.716;10.218;2022-10-16T17:14:16;19.90;99.90
32694;DHT22;19084;44.716;10.218;2022-10-16T17:16:49;19.80;99.90
32694;DHT22;19084;44.716;10.218;2022-10-16T17:19:24;19.80;99.90
32694;DHT22;19084;44.716;10.218;2022-10-16T17:21:56;19.70;99.90
32694;DHT22;19084;44.716;10.218;2022-10-16T17:24:29;19.60;99.90
32694;DHT22;19084;44.716;10.218;2022-10-16T17:27:02;19.60;99.90
32694;DHT22;19084;44.716;10.218;2022-10-16T17:29:35;19.50;99.90
32694;DHT22;19084;44.716;10.218;2022-10-16T17:32:08;19.50;99.90
32694;DHT22;19084;44.716;10.218;2022-10-16T17:34:41;19.40;99.90
32694;DHT22;19084;44.716;10.218;2022-10-16T17:37:14;19.40;99.90
32694;DHT22;19084;44.716;10.218;2022-10-16T17:39:50;19.30;99.90
32694;DHT22;19084;44.716;10.218;2022-10-16T17:42:24;19.30;99.90
32694;DHT22;19084;44.716;10.218;2022-10-16T17:44:57;19.40;99.90
32694;DHT22;19084;44.716;10.218;2022-10-16T17:47:30;19.30;99.90
32694;DHT22;19084;44.716;10.218;2022-10-16T17:50:03;19.30;99.90
32694;DHT22;19084;44.716;10.218;2022-10-16T17:52:37;19.20;99.90
32694;DHT22;19084;44.716;10.218;2022-10-16T17:55:10;19.20;99.90
32694;DHT22;19084;44.716;10.218;2022-10-16T17:57:42;19.20;99.90
32694;DHT22;19084;44.716;10.218;2022-10-16T18:00:15;19.10;99.90
32694;DHT22;19084;44.716;10.218;2022-10-16T18:02:49;19.00;99.90
32694;DHT22;19084;44.716;10.218;2022-10-16T18:05:22;19.00;99.90
32694;DHT22;19084;44.716;10.218;2022-10-16T18:07:54;19.00;99.90
32694;DHT22;19084;44.716;10.218;2022-10-16T18:10:27;18.90;99.90
32694;DHT22;19084;44.716;10.218;2022-10-16T18:13:00;18.90;99.90
32694;DHT22;19084;44.716;10.218;2022-10-16T18:15:33;18.80;99.90